sensor_id;sensor_type;location;lat;lon;timestamp;P1;durP1;ratioP1;P2;durP2;ratioP2
8319;SDS011;4197;42.130;24.746;2023-02-01T00:01:24;5.27;;;4.20;;
8319;SDS011;4197;42.130;24.746;2023-02-01T00:03:53;5.63;;;4.10;;
8319;SDS011;4197;42.130;24.746;2023-02-01T00:06:24;5.67;;;4.10;;
8319;SDS011;4197;42.130;24.746;2023-02-01T00:08:52;4.57;;;4.00;;
8319;SDS011;4197;42.130;24.746;2023-02-01T00:11:21;6.13;;;4.03;;
8319;SDS011;4197;42.130;24.746;2023-02-01T00:13:54;9.40;;;4.67;;
8319;SDS011;4197;42.130;24.746;2023-02-01T00:16:25;4.03;;;3.60;;
8319;SDS011;4197;42.130;24.746;2023-02-01T00:18:56;4.53;;;4.10;;
8319;SDS011;4197;42.130;24.746;2023-02-01T00:21:26;5.50;;;4.13;;
8319;SDS011;4197;42.130;24.746;2023-02-01T00:23:59;5.57;;;3.67;;
8319;SDS011;4197;42.130;24.746;2023-02-01T00:26:35;6.20;;;4.37;;
8319;SDS011;4197;42.130;24.746;2023-02-01T00:29:16;4.50;;;4.00;;
8319;SDS011;4197;42.130;24.746;2023-02-01T00:31:49;4.53;;;4.07;;
8319;SDS011;4197;42.130;24.746;2023-02-01T00:34:18;6.20;;;3.97;;
8319;SDS011;4197;42.130;24.746;2023-02-01T00:36:47;6.00;;;3.60;;
8319;SDS011;4197;42.130;24.746;2023-02-01T00:39:15;4.83;;;3.80;;
8319;SDS011;4197;42.130;24.746;2023-02-01T00:41:44;5.40;;;4.00;;
8319;SDS011;4197;42.130;24.746;2023-02-01T00:44:12;4.87;;;4.30;;
8319;SDS011;4197;42.130;24.746;2023-02-01T00:46:40;4.43;;;3.70;;
8319;SDS011;4197;42.130;24.746;2023-02-01T00:49:10;5.07;;;3.77;;
8319;SDS011;4197;42.130;24.746;2023-02-01T00:51:38;4.30;;;3.73;;
8319;SDS011;4197;42.130;24.746;2023-02-01T00:54:06;4.67;;;3.77;;
8319;SDS011;4197;42.130;24.746;2023-02-01T00:56:34;3.97;;;3.63;;
8319;SDS011;4197;42.130;24.746;2023-02-01T00:59:02;4.27;;;3.70;;
8319;SDS011;4197;42.130;24.746;2023-02-01T01:01:30;4.37;;;3.60;;
8319;SDS011;4197;42.130;24.746;2023-02-01T01:03:59;3.77;;;3.47;;
8319;SDS011;4197;42.130;24.746;2023-02-01T01:06:29;6.23;;;3.93;;
8319;SDS011;4197;42.130;24.746;2023-02-01T01:09:00;6.37;;;4.07;;
8319;SDS011;4197;42.130;24.746;2023-02-01T01:11:30;4.70;;;3.97;;
8319;SDS011;4197;42.130;24.746;2023-02-01T01:14:00;5.53;;;4.37;;
8319;SDS011;4197;42.130;24.746;2023-02-01T01:16:29;5.80;;;4.03;;
8319;SDS011;4197;42.130;24.746;2023-02-01T01:18:58;6.70;;;4.37;;
8319;SDS011;4197;42.130;24.746;2023-02-01T01:21:29;5.50;;;3.90;;
8319;SDS011;4197;42.130;24.746;2023-02-01T01:23:57;5.03;;;4.00;;
8319;SDS011;4197;42.130;24.746;2023-02-01T01:26:27;3.80;;;3.50;;
8319;SDS011;4197;42.130;24.746;2023-02-01T01:28:56;7.90;;;3.80;;
8319;SDS011;4197;42.130;24.746;2023-02-01T01:31:26;5.57;;;3.90;;
8319;SDS011;4197;42.130;24.746;2023-02-01T01:33:55;5.27;;;3.70;;
8319;SDS011;4197;42.130;24.746;2023-02-01T01:36:24;6.80;;;4.20;;
8319;SDS011;4197;42.130;24.746;2023-02-01T01:38:55;5.13;;;3.80;;
8319;SDS011;4197;42.130;24.746;2023-02-01T01:41:24;6.83;;;5.50;;
8319;SDS011;4197;42.130;24.746;2023-02-01T01:43:54;6.00;;;3.70;;
8319;SDS011;4197;42.130;24.746;2023-02-01T01:46:24;4.93;;;4.13;;
8319;SDS011;4197;42.130;24.746;2023-02-01T01:48:56;5.80;;;4.27;;
8319;SDS011;4197;42.130;24.746;2023-02-01T01:51:31;19.70;;;11.03;;
8319;SDS011;4197;42.130;24.746;2023-02-01T01:54:05;7.73;;;4.60;;
8319;SDS011;4197;42.130;24.746;2023-02-01T01:56:38;7.00;;;4.70;;
8319;SDS011;4197;42.130;24.746;2023-02-01T01:59:08;7.80;;;4.90;;
8319;SDS011;4197;42.130;24.746;2023-02-01T02:01:37;9.10;;;6.40;;
8319;SDS011;4197;42.130;24.746;2023-02-01T02:04:05;6.60;;;4.70;;
8319;SDS011;4197;42.130;24.746;2023-02-01T02:06:39;6.50;;;4.17;;
8319;SDS011;4197;42.130;24.746;2023-02-01T02:09:15;9.17;;;6.23;;
8319;SDS011;4197;42.130;24.746;2023-02-01T02:11:44;7.07;;;4.53;;
8319;SDS011;4197;42.130;24.746;2023-02-01T02:14:13;5.47;;;4.37;;
8319;SDS011;4197;42.130;24.746;2023-02-01T02:16:47;5.77;;;4.37;;
8319;SDS011;4197;42.130;24.746;2023-02-01T02:22:43;4.30;;;3.70;;
8319;SDS011;4197;42.130;24.746;2023-02-01T02:28:35;4.43;;;3.80;;
8319;SDS011;4197;42.130;24.746;2023-02-01T02:31:32;7.37;;;3.40;;
8319;SDS011;4197;42.130;24.746;2023-02-01T02:34:16;4.43;;;3.10;;
8319;SDS011;4197;42.130;24.746;2023-02-01T02:36:51;5.10;;;3.37;;
8319;SDS011;4197;42.130;24.746;2023-02-01T02:39:31;4.17;;;3.80;;
8319;SDS011;4197;42.130;24.746;2023-02-01T02:42:10;3.70;;;3.40;;
8319;SDS011;4197;42.130;24.746;2023-02-01T02:45:02;9.27;;;4.07;;
8319;SDS011;4197;42.130;24.746;2023-02-01T02:47:54;4.23;;;3.50;;
8319;SDS011;4197;42.130;24.746;2023-02-01T02:50:32;4.27;;;3.50;;
8319;SDS011;4197;42.130;24.746;2023-02-01T02:53:23;3.83;;;3.40;;
8319;SDS011;4197;42.130;24.746;2023-02-01T02:56:15;4.40;;;3.70;;
8319;SDS011;4197;42.130;24.746;2023-02-01T02:59:04;4.93;;;3.30;;
8319;SDS011;4197;42.130;24.746;2023-02-01T03:01:51;4.03;;;3.63;;
8319;SDS011;4197;42.130;24.746;2023-02-01T03:04:37;4.07;;;3.50;;
8319;SDS011;4197;42.130;24.746;2023-02-01T03:07:15;6.03;;;3.67;;
8319;SDS011;4197;42.130;24.746;2023-02-01T03:10:24;5.17;;;4.20;;
8319;SDS011;4197;42.130;24.746;2023-02-01T03:13:02;4.87;;;4.37;;
8319;SDS011;4197;42.130;24.746;2023-02-01T03:15:34;5.50;;;4.50;;
8319;SDS011;4197;42.130;24.746;2023-02-01T03:18:06;5.83;;;4.47;;
8319;SDS011;4197;42.130;24.746;2023-02-01T03:20:40;4.67;;;3.63;;
8319;SDS011;4197;42.130;24.746;2023-02-01T03:23:13;4.30;;;3.63;;
8319;SDS011;4197;42.130;24.746;2023-02-01T03:25:44;7.73;;;3.83;;
8319;SDS011;4197;42.130;24.746;2023-02-01T03:28:16;4.30;;;3.73;;
8319;SDS011;4197;42.130;24.746;2023-02-01T03:30:48;7.73;;;6.00;;
8319;SDS011;4197;42.130;24.746;2023-02-01T03:33:17;5.93;;;4.67;;
8319;SDS011;4197;42.130;24.746;2023-02-01T03:35:54;6.07;;;4.60;;
8319;SDS011;4197;42.130;24.746;2023-02-01T03:38:30;5.80;;;4.53;;
8319;SDS011;4197;42.130;24.746;2023-02-01T03:41:08;6.50;;;4.47;;
8319;SDS011;4197;42.130;24.746;2023-02-01T03:43:42;8.37;;;4.90;;
8319;SDS011;4197;42.130;24.746;2023-02-01T03:46:20;6.03;;;4.97;;
8319;SDS011;4197;42.130;24.746;2023-02-01T03:48:54;6.53;;;4.93;;
8319;SDS011;4197;42.130;24.746;2023-02-01T03:51:24;6.17;;;5.23;;
8319;SDS011;4197;42.130;24.746;2023-02-01T03:53:54;8.03;;;5.33;;
8319;SDS011;4197;42.130;24.746;2023-02-01T03:56:24;9.43;;;5.10;;
8319;SDS011;4197;42.130;24.746;2023-02-01T03:58:55;7.97;;;5.33;;
8319;SDS011;4197;42.130;24.746;2023-02-01T04:01:27;8.57;;;5.57;;
8319;SDS011;4197;42.130;24.746;2023-02-01T04:03:57;6.13;;;5.43;;
8319;SDS011;4197;42.130;24.746;2023-02-01T04:06:27;8.47;;;6.20;;
8319;SDS011;4197;42.130;24.746;2023-02-01T04:08:56;6.20;;;5.57;;
8319;SDS011;4197;42.130;24.746;2023-02-01T04:11:24;8.13;;;6.43;;
8319;SDS011;4197;42.130;24.746;2023-02-01T04:13:53;9.10;;;6.03;;
8319;SDS011;4197;42.130;24.746;2023-02-01T04:16:22;6.43;;;5.20;;
8319;SDS011;4197;42.130;24.746;2023-02-01T04:18:51;7.47;;;5.90;;
8319;SDS011;4197;42.130;24.746;2023-02-01T04:21:20;8.00;;;5.83;;
8319;SDS011;4197;42.130;24.746;2023-02-01T04:23:48;9.47;;;5.83;;
8319;SDS011;4197;42.130;24.746;2023-02-01T04:26:18;7.80;;;5.90;;
8319;SDS011;4197;42.130;24.746;2023-02-01T04:28:47;8.80;;;6.87;;
8319;SDS011;4197;42.130;24.746;2023-02-01T04:31:15;7.33;;;6.43;;
8319;SDS011;4197;42.130;24.746;2023-02-01T04:33:51;8.27;;;6.70;;
8319;SDS011;4197;42.130;24.746;2023-02-01T04:36:20;9.00;;;6.63;;
8319;SDS011;4197;42.130;24.746;2023-02-01T04:38:49;7.00;;;5.50;;
8319;SDS011;4197;42.130;24.746;2023-02-01T04:41:19;7.33;;;6.00;;
8319;SDS011;4197;42.130;24.746;2023-02-01T04:43:49;7.30;;;5.93;;
8319;SDS011;4197;42.130;24.746;2023-02-01T04:46:18;6.63;;;6.03;;
8319;SDS011;4197;42.130;24.746;2023-02-01T04:48:47;7.03;;;5.60;;
8319;SDS011;4197;42.130;24.746;2023-02-01T04:51:18;9.13;;;6.40;;
8319;SDS011;4197;42.130;24.746;2023-02-01T04:53:46;9.03;;;5.80;;
8319;SDS011;4197;42.130;24.746;2023-02-01T04:56:15;6.80;;;5.73;;
8319;SDS011;4197;42.130;24.746;2023-02-01T04:58:44;7.80;;;5.73;;
8319;SDS011;4197;42.130;24.746;2023-02-01T05:01:12;7.43;;;5.50;;
8319;SDS011;4197;42.130;24.746;2023-02-01T05:03:41;6.33;;;5.10;;
8319;SDS011;4197;42.130;24.746;2023-02-01T05:06:09;10.67;;;5.23;;
8319;SDS011;4197;42.130;24.746;2023-02-01T05:08:37;5.73;;;4.60;;
8319;SDS011;4197;42.130;24.746;2023-02-01T05:11:06;7.60;;;5.13;;
8319;SDS011;4197;42.130;24.746;2023-02-01T05:13:56;7.00;;;4.90;;
8319;SDS011;4197;42.130;24.746;2023-02-01T05:16:23;7.60;;;5.30;;
8319;SDS011;4197;42.130;24.746;2023-02-01T05:18:52;7.27;;;5.03;;
8319;SDS011;4197;42.130;24.746;2023-02-01T05:21:20;6.47;;;4.37;;
8319;SDS011;4197;42.130;24.746;2023-02-01T05:23:50;5.13;;;4.17;;
8319;SDS011;4197;42.130;24.746;2023-02-01T05:26:38;4.77;;;4.13;;
8319;SDS011;4197;42.130;24.746;2023-02-01T05:29:12;10.20;;;4.90;;
8319;SDS011;4197;42.130;24.746;2023-02-01T05:31:43;8.57;;;4.53;;
8319;SDS011;4197;42.130;24.746;2023-02-01T05:34:12;9.13;;;4.63;;
8319;SDS011;4197;42.130;24.746;2023-02-01T05:36:41;6.03;;;4.00;;
8319;SDS011;4197;42.130;24.746;2023-02-01T05:39:10;7.10;;;4.67;;
8319;SDS011;4197;42.130;24.746;2023-02-01T05:41:38;8.43;;;5.47;;
8319;SDS011;4197;42.130;24.746;2023-02-01T05:44:07;7.17;;;4.80;;
8319;SDS011;4197;42.130;24.746;2023-02-01T05:46:37;8.17;;;5.30;;
8319;SDS011;4197;42.130;24.746;2023-02-01T05:49:05;5.83;;;4.77;;
8319;SDS011;4197;42.130;24.746;2023-02-01T05:51:34;9.87;;;5.80;;
8319;SDS011;4197;42.130;24.746;2023-02-01T05:54:02;13.27;;;5.53;;
8319;SDS011;4197;42.130;24.746;2023-02-01T05:56:34;5.47;;;4.73;;
8319;SDS011;4197;42.130;24.746;2023-02-01T05:59:02;5.97;;;4.60;;
8319;SDS011;4197;42.130;24.746;2023-02-01T06:01:30;6.10;;;4.77;;
8319;SDS011;4197;42.130;24.746;2023-02-01T06:04:00;9.47;;;5.17;;
8319;SDS011;4197;42.130;24.746;2023-02-01T06:06:28;8.53;;;4.33;;
8319;SDS011;4197;42.130;24.746;2023-02-01T06:08:56;5.03;;;4.20;;
8319;SDS011;4197;42.130;24.746;2023-02-01T06:11:25;6.03;;;4.20;;
8319;SDS011;4197;42.130;24.746;2023-02-01T06:13:58;6.40;;;3.80;;
8319;SDS011;4197;42.130;24.746;2023-02-01T06:16:27;5.80;;;3.93;;
8319;SDS011;4197;42.130;24.746;2023-02-01T06:18:55;6.00;;;3.83;;
8319;SDS011;4197;42.130;24.746;2023-02-01T06:21:25;4.90;;;4.50;;
8319;SDS011;4197;42.130;24.746;2023-02-01T06:23:53;7.40;;;4.73;;
8319;SDS011;4197;42.130;24.746;2023-02-01T06:26:24;3.97;;;3.57;;
8319;SDS011;4197;42.130;24.746;2023-02-01T06:28:55;6.53;;;4.40;;
8319;SDS011;4197;42.130;24.746;2023-02-01T06:31:23;5.83;;;4.17;;
8319;SDS011;4197;42.130;24.746;2023-02-01T06:33:52;4.63;;;3.90;;
8319;SDS011;4197;42.130;24.746;2023-02-01T06:36:25;10.50;;;4.10;;
8319;SDS011;4197;42.130;24.746;2023-02-01T06:38:59;5.23;;;3.90;;
8319;SDS011;4197;42.130;24.746;2023-02-01T06:41:28;6.80;;;3.70;;
8319;SDS011;4197;42.130;24.746;2023-02-01T06:43:56;5.03;;;3.97;;
8319;SDS011;4197;42.130;24.746;2023-02-01T06:46:30;5.73;;;3.97;;
8319;SDS011;4197;42.130;24.746;2023-02-01T06:48:59;7.63;;;4.60;;
8319;SDS011;4197;42.130;24.746;2023-02-01T06:51:28;7.63;;;4.00;;
8319;SDS011;4197;42.130;24.746;2023-02-01T06:53:57;4.53;;;3.50;;
8319;SDS011;4197;42.130;24.746;2023-02-01T06:56:25;7.43;;;3.77;;
8319;SDS011;4197;42.130;24.746;2023-02-01T06:58:53;8.37;;;4.53;;
8319;SDS011;4197;42.130;24.746;2023-02-01T07:01:22;7.43;;;4.50;;
8319;SDS011;4197;42.130;24.746;2023-02-01T07:03:52;6.60;;;3.20;;
8319;SDS011;4197;42.130;24.746;2023-02-01T07:06:21;7.63;;;4.10;;
8319;SDS011;4197;42.130;24.746;2023-02-01T07:08:50;9.10;;;4.20;;
8319;SDS011;4197;42.130;24.746;2023-02-01T07:11:22;6.37;;;4.20;;
8319;SDS011;4197;42.130;24.746;2023-02-01T07:13:55;6.67;;;3.97;;
8319;SDS011;4197;42.130;24.746;2023-02-01T07:16:23;7.17;;;4.80;;
8319;SDS011;4197;42.130;24.746;2023-02-01T07:18:56;5.77;;;4.17;;
8319;SDS011;4197;42.130;24.746;2023-02-01T07:21:30;8.80;;;4.60;;
8319;SDS011;4197;42.130;24.746;2023-02-01T07:24:00;8.50;;;5.30;;
8319;SDS011;4197;42.130;24.746;2023-02-01T07:26:31;5.50;;;4.20;;
8319;SDS011;4197;42.130;24.746;2023-02-01T07:29:00;5.93;;;4.30;;
8319;SDS011;4197;42.130;24.746;2023-02-01T07:31:29;7.87;;;4.97;;
8319;SDS011;4197;42.130;24.746;2023-02-01T07:34:00;9.50;;;4.70;;
8319;SDS011;4197;42.130;24.746;2023-02-01T07:36:29;9.43;;;5.40;;
8319;SDS011;4197;42.130;24.746;2023-02-01T07:38:57;17.60;;;7.87;;
8319;SDS011;4197;42.130;24.746;2023-02-01T07:41:27;10.73;;;5.13;;
8319;SDS011;4197;42.130;24.746;2023-02-01T07:43:58;7.97;;;4.77;;
8319;SDS011;4197;42.130;24.746;2023-02-01T07:46:26;7.67;;;5.13;;
8319;SDS011;4197;42.130;24.746;2023-02-01T07:48:54;7.67;;;5.03;;
8319;SDS011;4197;42.130;24.746;2023-02-01T07:51:23;11.40;;;5.83;;
8319;SDS011;4197;42.130;24.746;2023-02-01T07:53:51;9.37;;;5.17;;
8319;SDS011;4197;42.130;24.746;2023-02-01T07:56:21;7.60;;;4.73;;
8319;SDS011;4197;42.130;24.746;2023-02-01T07:58:51;9.37;;;5.67;;
8319;SDS011;4197;42.130;24.746;2023-02-01T08:01:21;6.27;;;4.77;;
8319;SDS011;4197;42.130;24.746;2023-02-01T08:03:51;7.43;;;5.13;;
8319;SDS011;4197;42.130;24.746;2023-02-01T08:06:21;5.63;;;4.50;;
8319;SDS011;4197;42.130;24.746;2023-02-01T08:08:51;6.20;;;4.33;;
8319;SDS011;4197;42.130;24.746;2023-02-01T08:11:21;7.70;;;4.33;;
8319;SDS011;4197;42.130;24.746;2023-02-01T08:13:52;5.67;;;3.60;;
8319;SDS011;4197;42.130;24.746;2023-02-01T08:16:21;11.77;;;7.97;;
8319;SDS011;4197;42.130;24.746;2023-02-01T08:18:51;5.93;;;3.90;;
8319;SDS011;4197;42.130;24.746;2023-02-01T08:21:20;3.63;;;3.27;;
8319;SDS011;4197;42.130;24.746;2023-02-01T08:23:50;7.43;;;4.03;;
8319;SDS011;4197;42.130;24.746;2023-02-01T08:26:19;10.60;;;5.33;;
8319;SDS011;4197;42.130;24.746;2023-02-01T08:28:49;6.87;;;5.00;;
8319;SDS011;4197;42.130;24.746;2023-02-01T08:31:21;6.80;;;3.77;;
8319;SDS011;4197;42.130;24.746;2023-02-01T08:33:51;4.30;;;3.77;;
8319;SDS011;4197;42.130;24.746;2023-02-01T08:36:20;5.40;;;4.07;;
8319;SDS011;4197;42.130;24.746;2023-02-01T08:38:49;5.83;;;4.50;;
8319;SDS011;4197;42.130;24.746;2023-02-01T08:41:18;8.13;;;5.87;;
8319;SDS011;4197;42.130;24.746;2023-02-01T08:43:48;10.83;;;6.90;;
8319;SDS011;4197;42.130;24.746;2023-02-01T08:46:18;7.60;;;5.63;;
8319;SDS011;4197;42.130;24.746;2023-02-01T08:48:46;4.57;;;3.97;;
8319;SDS011;4197;42.130;24.746;2023-02-01T08:51:18;5.83;;;4.07;;
8319;SDS011;4197;42.130;24.746;2023-02-01T08:53:47;8.23;;;4.50;;
8319;SDS011;4197;42.130;24.746;2023-02-01T08:56:16;10.90;;;4.73;;
8319;SDS011;4197;42.130;24.746;2023-02-01T08:58:45;6.53;;;4.73;;
8319;SDS011;4197;42.130;24.746;2023-02-01T09:01:15;5.73;;;3.90;;
8319;SDS011;4197;42.130;24.746;2023-02-01T09:03:45;5.83;;;3.70;;
8319;SDS011;4197;42.130;24.746;2023-02-01T09:06:14;6.33;;;4.37;;
8319;SDS011;4197;42.130;24.746;2023-02-01T09:08:42;7.53;;;3.90;;
8319;SDS011;4197;42.130;24.746;2023-02-01T09:11:11;9.20;;;5.20;;
8319;SDS011;4197;42.130;24.746;2023-02-01T09:13:41;10.83;;;5.20;;
8319;SDS011;4197;42.130;24.746;2023-02-01T09:16:09;8.10;;;5.27;;
8319;SDS011;4197;42.130;24.746;2023-02-01T09:18:56;12.67;;;4.60;;
8319;SDS011;4197;42.130;24.746;2023-02-01T09:21:45;11.90;;;4.60;;
8319;SDS011;4197;42.130;24.746;2023-02-01T09:24:13;6.27;;;4.53;;
8319;SDS011;4197;42.130;24.746;2023-02-01T09:26:41;7.43;;;4.30;;
8319;SDS011;4197;42.130;24.746;2023-02-01T09:29:10;9.27;;;5.17;;
8319;SDS011;4197;42.130;24.746;2023-02-01T09:31:38;6.77;;;3.83;;
8319;SDS011;4197;42.130;24.746;2023-02-01T09:34:24;7.47;;;4.87;;
8319;SDS011;4197;42.130;24.746;2023-02-01T09:36:52;7.20;;;4.90;;
8319;SDS011;4197;42.130;24.746;2023-02-01T09:39:20;7.17;;;4.90;;
8319;SDS011;4197;42.130;24.746;2023-02-01T09:41:51;10.47;;;5.23;;
8319;SDS011;4197;42.130;24.746;2023-02-01T09:44:31;5.93;;;4.10;;
8319;SDS011;4197;42.130;24.746;2023-02-01T09:47:13;7.97;;;3.80;;
8319;SDS011;4197;42.130;24.746;2023-02-01T09:49:48;6.93;;;3.27;;
8319;SDS011;4197;42.130;24.746;2023-02-01T09:52:25;4.37;;;2.77;;
8319;SDS011;4197;42.130;24.746;2023-02-01T09:54:59;3.77;;;2.47;;
8319;SDS011;4197;42.130;24.746;2023-02-01T09:57:36;7.63;;;2.77;;
8319;SDS011;4197;42.130;24.746;2023-02-01T10:00:14;6.93;;;3.17;;
8319;SDS011;4197;42.130;24.746;2023-02-01T10:02:45;7.83;;;2.93;;
8319;SDS011;4197;42.130;24.746;2023-02-01T10:05:16;5.17;;;2.57;;
8319;SDS011;4197;42.130;24.746;2023-02-01T10:07:55;2.30;;;2.10;;
8319;SDS011;4197;42.130;24.746;2023-02-01T10:10:34;6.50;;;2.93;;
8319;SDS011;4197;42.130;24.746;2023-02-01T10:13:18;5.10;;;2.90;;
8319;SDS011;4197;42.130;24.746;2023-02-01T10:16:02;8.00;;;3.23;;
8319;SDS011;4197;42.130;24.746;2023-02-01T10:18:49;5.60;;;3.83;;
8319;SDS011;4197;42.130;24.746;2023-02-01T10:21:31;3.60;;;2.33;;
8319;SDS011;4197;42.130;24.746;2023-02-01T10:24:28;4.33;;;2.80;;
8319;SDS011;4197;42.130;24.746;2023-02-01T10:27:09;8.80;;;2.80;;
8319;SDS011;4197;42.130;24.746;2023-02-01T10:29:41;5.40;;;3.17;;
8319;SDS011;4197;42.130;24.746;2023-02-01T10:32:13;7.67;;;2.60;;
8319;SDS011;4197;42.130;24.746;2023-02-01T10:34:43;6.53;;;2.70;;
8319;SDS011;4197;42.130;24.746;2023-02-01T10:37:25;4.73;;;2.37;;
8319;SDS011;4197;42.130;24.746;2023-02-01T10:39:56;4.83;;;2.30;;
8319;SDS011;4197;42.130;24.746;2023-02-01T10:42:28;5.10;;;2.30;;
8319;SDS011;4197;42.130;24.746;2023-02-01T10:44:57;3.37;;;2.40;;
8319;SDS011;4197;42.130;24.746;2023-02-01T10:47:32;5.67;;;3.03;;
8319;SDS011;4197;42.130;24.746;2023-02-01T10:50:02;4.47;;;2.83;;
8319;SDS011;4197;42.130;24.746;2023-02-01T10:52:45;5.87;;;3.00;;
8319;SDS011;4197;42.130;24.746;2023-02-01T10:55:27;4.40;;;2.60;;
8319;SDS011;4197;42.130;24.746;2023-02-01T10:57:57;4.23;;;2.13;;
8319;SDS011;4197;42.130;24.746;2023-02-01T11:00:33;4.33;;;2.27;;
8319;SDS011;4197;42.130;24.746;2023-02-01T11:06:16;9.67;;;2.53;;
8319;SDS011;4197;42.130;24.746;2023-02-01T11:08:49;68.20;;;7.30;;
8319;SDS011;4197;42.130;24.746;2023-02-01T11:11:19;3.80;;;2.20;;
8319;SDS011;4197;42.130;24.746;2023-02-01T11:13:51;9.33;;;2.57;;
8319;SDS011;4197;42.130;24.746;2023-02-01T11:16:21;2.40;;;1.90;;
8319;SDS011;4197;42.130;24.746;2023-02-01T11:18:58;4.60;;;2.47;;
8319;SDS011;4197;42.130;24.746;2023-02-01T11:21:26;2.90;;;2.60;;
8319;SDS011;4197;42.130;24.746;2023-02-01T11:23:56;5.37;;;2.43;;
8319;SDS011;4197;42.130;24.746;2023-02-01T11:26:29;3.97;;;2.20;;
8319;SDS011;4197;42.130;24.746;2023-02-01T11:29:00;5.10;;;2.43;;
8319;SDS011;4197;42.130;24.746;2023-02-01T11:31:30;3.13;;;2.10;;
8319;SDS011;4197;42.130;24.746;2023-02-01T11:34:05;6.33;;;3.87;;
8319;SDS011;4197;42.130;24.746;2023-02-01T11:36:35;7.13;;;3.10;;
8319;SDS011;4197;42.130;24.746;2023-02-01T11:39:09;5.93;;;3.10;;
8319;SDS011;4197;42.130;24.746;2023-02-01T11:41:56;4.57;;;2.53;;
8319;SDS011;4197;42.130;24.746;2023-02-01T11:44:30;8.93;;;3.77;;
8319;SDS011;4197;42.130;24.746;2023-02-01T11:49:53;2.97;;;2.17;;
8319;SDS011;4197;42.130;24.746;2023-02-01T11:58:17;5.23;;;2.77;;
8319;SDS011;4197;42.130;24.746;2023-02-01T12:01:00;5.30;;;1.83;;
8319;SDS011;4197;42.130;24.746;2023-02-01T12:04:01;6.80;;;1.97;;
8319;SDS011;4197;42.130;24.746;2023-02-01T12:06:50;5.70;;;1.87;;
8319;SDS011;4197;42.130;24.746;2023-02-01T12:09:25;4.30;;;2.40;;
8319;SDS011;4197;42.130;24.746;2023-02-01T12:12:08;6.53;;;2.17;;
8319;SDS011;4197;42.130;24.746;2023-02-01T12:15:01;3.03;;;2.40;;
8319;SDS011;4197;42.130;24.746;2023-02-01T12:17:45;3.37;;;2.07;;
8319;SDS011;4197;42.130;24.746;2023-02-01T12:20:34;3.53;;;1.90;;
8319;SDS011;4197;42.130;24.746;2023-02-01T12:23:21;2.37;;;1.90;;
8319;SDS011;4197;42.130;24.746;2023-02-01T12:26:06;4.50;;;3.23;;
8319;SDS011;4197;42.130;24.746;2023-02-01T12:28:52;3.30;;;2.40;;
8319;SDS011;4197;42.130;24.746;2023-02-01T12:31:41;8.67;;;2.53;;
8319;SDS011;4197;42.130;24.746;2023-02-01T12:34:24;5.63;;;2.40;;
8319;SDS011;4197;42.130;24.746;2023-02-01T12:37:04;2.73;;;2.33;;
8319;SDS011;4197;42.130;24.746;2023-02-01T12:39:42;3.80;;;1.83;;
8319;SDS011;4197;42.130;24.746;2023-02-01T12:42:18;2.50;;;2.00;;
8319;SDS011;4197;42.130;24.746;2023-02-01T12:44:56;2.80;;;1.70;;
8319;SDS011;4197;42.130;24.746;2023-02-01T12:47:31;6.50;;;3.53;;
8319;SDS011;4197;42.130;24.746;2023-02-01T12:50:11;4.73;;;2.43;;
8319;SDS011;4197;42.130;24.746;2023-02-01T12:52:46;2.97;;;1.80;;
8319;SDS011;4197;42.130;24.746;2023-02-01T12:55:19;2.23;;;2.00;;
8319;SDS011;4197;42.130;24.746;2023-02-01T12:57:51;5.40;;;3.03;;
8319;SDS011;4197;42.130;24.746;2023-02-01T13:00:25;4.90;;;2.23;;
8319;SDS011;4197;42.130;24.746;2023-02-01T13:03:03;3.47;;;2.07;;
8319;SDS011;4197;42.130;24.746;2023-02-01T13:05:44;4.57;;;2.17;;
8319;SDS011;4197;42.130;24.746;2023-02-01T13:08:21;3.50;;;1.87;;
8319;SDS011;4197;42.130;24.746;2023-02-01T13:10:54;6.43;;;2.67;;
8319;SDS011;4197;42.130;24.746;2023-02-01T13:13:28;4.07;;;2.30;;
8319;SDS011;4197;42.130;24.746;2023-02-01T13:16:02;3.47;;;2.47;;
8319;SDS011;4197;42.130;24.746;2023-02-01T13:18:41;4.50;;;2.53;;
8319;SDS011;4197;42.130;24.746;2023-02-01T13:21:14;4.97;;;2.40;;
8319;SDS011;4197;42.130;24.746;2023-02-01T13:23:46;3.50;;;1.70;;
8319;SDS011;4197;42.130;24.746;2023-02-01T13:26:16;5.10;;;1.77;;
8319;SDS011;4197;42.130;24.746;2023-02-01T13:28:44;3.33;;;2.37;;
8319;SDS011;4197;42.130;24.746;2023-02-01T13:34:37;8.03;;;2.40;;
8319;SDS011;4197;42.130;24.746;2023-02-01T13:37:22;6.37;;;2.57;;
8319;SDS011;4197;42.130;24.746;2023-02-01T13:40:05;5.17;;;2.40;;
8319;SDS011;4197;42.130;24.746;2023-02-01T13:42:47;6.83;;;2.80;;
8319;SDS011;4197;42.130;24.746;2023-02-01T13:45:19;6.47;;;2.77;;
8319;SDS011;4197;42.130;24.746;2023-02-01T13:47:51;5.20;;;2.30;;
8319;SDS011;4197;42.130;24.746;2023-02-01T13:50:23;5.63;;;2.90;;
8319;SDS011;4197;42.130;24.746;2023-02-01T13:52:58;8.23;;;2.90;;
8319;SDS011;4197;42.130;24.746;2023-02-01T13:55:29;6.90;;;4.73;;
8319;SDS011;4197;42.130;24.746;2023-02-01T13:58:01;6.20;;;2.77;;
8319;SDS011;4197;42.130;24.746;2023-02-01T14:00:39;3.03;;;1.90;;
8319;SDS011;4197;42.130;24.746;2023-02-01T14:03:19;5.00;;;2.40;;
8319;SDS011;4197;42.130;24.746;2023-02-01T14:09:10;4.63;;;3.53;;
8319;SDS011;4197;42.130;24.746;2023-02-01T14:11:44;5.37;;;2.73;;
8319;SDS011;4197;42.130;24.746;2023-02-01T14:23:16;1.80;;;1.67;;
8319;SDS011;4197;42.130;24.746;2023-02-01T14:26:03;6.73;;;2.50;;
8319;SDS011;4197;42.130;24.746;2023-02-01T14:31:31;4.30;;;2.40;;
8319;SDS011;4197;42.130;24.746;2023-02-01T14:34:14;4.00;;;2.50;;
8319;SDS011;4197;42.130;24.746;2023-02-01T14:36:47;4.83;;;3.17;;
8319;SDS011;4197;42.130;24.746;2023-02-01T14:39:31;3.30;;;2.17;;
8319;SDS011;4197;42.130;24.746;2023-02-01T14:42:14;5.07;;;2.53;;
8319;SDS011;4197;42.130;24.746;2023-02-01T14:44:50;4.97;;;2.00;;
8319;SDS011;4197;42.130;24.746;2023-02-01T14:53:02;4.37;;;3.07;;
8319;SDS011;4197;42.130;24.746;2023-02-01T14:55:38;5.27;;;2.73;;
8319;SDS011;4197;42.130;24.746;2023-02-01T14:58:16;5.07;;;3.23;;
8319;SDS011;4197;42.130;24.746;2023-02-01T15:00:53;5.63;;;3.67;;
8319;SDS011;4197;42.130;24.746;2023-02-01T15:03:25;6.30;;;4.53;;
8319;SDS011;4197;42.130;24.746;2023-02-01T15:06:12;4.97;;;3.27;;
8319;SDS011;4197;42.130;24.746;2023-02-01T15:08:48;4.83;;;3.13;;
8319;SDS011;4197;42.130;24.746;2023-02-01T15:11:16;6.67;;;3.20;;
8319;SDS011;4197;42.130;24.746;2023-02-01T15:13:49;6.57;;;3.70;;
8319;SDS011;4197;42.130;24.746;2023-02-01T15:16:20;4.83;;;2.80;;
8319;SDS011;4197;42.130;24.746;2023-02-01T15:18:49;6.70;;;4.03;;
8319;SDS011;4197;42.130;24.746;2023-02-01T15:21:19;5.40;;;3.67;;
8319;SDS011;4197;42.130;24.746;2023-02-01T15:24:09;5.37;;;3.83;;
8319;SDS011;4197;42.130;24.746;2023-02-01T15:26:38;7.80;;;5.00;;
8319;SDS011;4197;42.130;24.746;2023-02-01T15:29:11;5.23;;;3.70;;
8319;SDS011;4197;42.130;24.746;2023-02-01T15:31:44;6.37;;;4.10;;
8319;SDS011;4197;42.130;24.746;2023-02-01T15:34:13;13.60;;;8.17;;
8319;SDS011;4197;42.130;24.746;2023-02-01T15:36:42;5.20;;;3.67;;
8319;SDS011;4197;42.130;24.746;2023-02-01T15:39:28;8.20;;;4.47;;
8319;SDS011;4197;42.130;24.746;2023-02-01T15:41:59;5.03;;;3.53;;
8319;SDS011;4197;42.130;24.746;2023-02-01T15:44:38;7.57;;;5.23;;
8319;SDS011;4197;42.130;24.746;2023-02-01T15:47:14;8.93;;;3.97;;
8319;SDS011;4197;42.130;24.746;2023-02-01T15:49:45;6.43;;;4.40;;
8319;SDS011;4197;42.130;24.746;2023-02-01T15:52:21;13.17;;;4.60;;
8319;SDS011;4197;42.130;24.746;2023-02-01T15:54:53;5.83;;;4.40;;
8319;SDS011;4197;42.130;24.746;2023-02-01T15:57:26;7.30;;;4.43;;
8319;SDS011;4197;42.130;24.746;2023-02-01T16:00:00;7.50;;;4.10;;
8319;SDS011;4197;42.130;24.746;2023-02-01T16:02:33;9.97;;;6.67;;
8319;SDS011;4197;42.130;24.746;2023-02-01T16:05:05;12.07;;;5.90;;
8319;SDS011;4197;42.130;24.746;2023-02-01T16:07:55;7.33;;;4.60;;
8319;SDS011;4197;42.130;24.746;2023-02-01T16:10:30;5.60;;;4.43;;
8319;SDS011;4197;42.130;24.746;2023-02-01T16:12:59;8.00;;;5.03;;
8319;SDS011;4197;42.130;24.746;2023-02-01T16:15:28;8.97;;;4.97;;
8319;SDS011;4197;42.130;24.746;2023-02-01T16:17:57;8.37;;;4.93;;
8319;SDS011;4197;42.130;24.746;2023-02-01T16:20:26;8.97;;;5.00;;